This is the latest recevied weather packets stored in our database for station/object KE2GQQ. If no packets are shown the sender has not sent any weather packets the latest 10 day(s).
| Time | Temp. | Humidity | Pressure | Rain* | Wind** | Luminosity | Snow |
|---|---|---|---|---|---|---|---|
| 1777842016 | 15° C | 37% | 1009.8 hPa | 0 mm | - | 44 W/m² | - |
| 1777833618 | 13.33° C | 41% | 1010.8 hPa | 0 mm | - | 172 W/m² | - |
| 1777831218 | 12.78° C | 42% | 1010.9 hPa | 0 mm | - | 227 W/m² | - |
| 1777828257 | 12.22° C | 42% | 1010.9 hPa | 0 mm | - | 122 W/m² | - |
| 1777825816 | 11.67° C | 44% | 1011.1 hPa | 0 mm | - | 167 W/m² | - |
| 1777820418 | 11.67° C | 48% | 1011.4 hPa | 0 mm | - | 78 W/m² | - |
| 1777819818 | 11.67° C | 50% | 1011.5 hPa | 0 mm | - | 370 W/m² | - |
| 1777818618 | 11.67° C | 51% | 1011.5 hPa | 0 mm | - | 140 W/m² | - |
| 1777815016 | 11.11° C | 52% | 1011.5 hPa | 0 mm | - | 628 W/m² | - |
| 1777812617 | 10° C | 54% | 1011.5 hPa | 0 mm | - | 488 W/m² | - |
| 1777812018 | 10° C | 55% | 1011.5 hPa | 0 mm | - | 448 W/m² | - |
| 1777811417 | 8.89° C | 57% | 1011.5 hPa | 0 mm | - | 411 W/m² | - |
| 1777810837 | 8.33° C | 57% | 1011.5 hPa | 0 mm | - | 185 W/m² | - |
| 1777809638 | 7.78° C | 59% | 1011.5 hPa | 0 mm | - | 116 W/m² | - |
| 1777804816 | 7.22° C | 65% | 1010.8 hPa | 0 mm | - | 22 W/m² | - |
| 1777793458 | 8.33° C | 59% | 1010.1 hPa | 0 mm | - | 0 W/m² | - |
| 1777786217 | 10° C | 55% | 1010.6 hPa | 0 mm | - | 0 W/m² | - |
| 1777784418 | 10° C | 54% | 1011 hPa | 0 mm | - | 0 W/m² | - |
| 1777783817 | 10.56° C | 58% | 1010.9 hPa | 0 mm | - | 0 W/m² | - |
| 1777783218 | 10.56° C | 57% | 1010.9 hPa | 0 mm | - | 0 W/m² | - |
| 1777779616 | 10° C | 66% | 1010.9 hPa | 0 mm | - | 0 W/m² | - |
| 1777777216 | 10.56° C | 61% | 1010.9 hPa | 0 mm | - | 0 W/m² | - |
| 1777773017 | 11.11° C | 59% | 1011 hPa | 0 mm | - | 0 W/m² | - |
| 1777767615 | 11.67° C | 65% | 1010.4 hPa | 0 mm | - | 0 W/m² | - |
| 1777765216 | 13.33° C | 62% | 1010.1 hPa | 0 mm | - | 5 W/m² | - |
* Rain latest hour (hover to see other rain measurements)
** Current wind speed in m/s (hover to see current wind gust speed)